createdAt,value
2023-01-07T10:36:13.615Z,11.30
2023-01-07T10:37:26.401Z,11.30
2023-01-07T10:38:26.310Z,11.40
2023-01-07T10:39:26.240Z,10.80
2023-01-07T10:40:26.158Z,11.40
2023-01-07T10:41:26.111Z,11.10
2023-01-07T10:42:26.002Z,10.60
2023-01-07T10:43:25.923Z,11.00
2023-01-07T10:44:25.840Z,11.50
2023-01-07T10:45:25.829Z,11.70
2023-01-07T10:46:25.673Z,11.30
2023-01-07T10:47:25.611Z,11.00
2023-01-07T10:48:25.496Z,9.50
2023-01-07T10:49:25.405Z,9.90
2023-01-07T10:50:25.327Z,9.80
2023-01-07T10:51:25.238Z,10.70
2023-01-07T10:52:25.163Z,10.20
2023-01-07T10:53:25.063Z,10.40
2023-01-07T10:54:24.956Z,9.70
2023-01-07T10:55:24.874Z,10.40
2023-01-07T10:56:24.767Z,10.60
2023-01-07T10:57:24.684Z,10.40
2023-01-07T10:58:24.595Z,10.50
2023-01-07T10:59:24.489Z,10.40
2023-01-07T11:00:24.403Z,11.10
2023-01-07T11:01:24.395Z,10.60
2023-01-07T11:02:24.385Z,10.50
2023-01-07T11:03:24.120Z,9.60
2023-01-07T11:04:24.014Z,10.10
2023-01-07T11:05:23.908Z,10.20
2023-01-07T11:06:23.808Z,10.80
2023-01-07T11:07:23.714Z,10.70
2023-01-07T11:08:23.625Z,10.30
2023-01-07T11:09:23.525Z,10.30
2023-01-07T11:10:23.449Z,10.40
2023-01-07T11:11:23.374Z,10.90
2023-01-07T11:12:23.208Z,11.60
2023-01-07T11:13:23.128Z,11.40
2023-01-07T11:14:23.018Z,12.00
2023-01-07T11:15:22.909Z,11.00
2023-01-07T11:16:22.841Z,10.80
2023-01-07T11:17:22.700Z,10.60
2023-01-07T11:18:22.595Z,10.90
2023-01-07T11:19:22.502Z,11.20
2023-01-07T11:20:22.392Z,10.80
2023-01-07T11:21:43.225Z,11.60
2023-01-07T11:22:23.181Z,11.50
2023-01-07T11:23:22.091Z,11.40
2023-01-07T11:24:21.983Z,11.80
2023-01-07T11:25:21.868Z,11.70
2023-01-07T11:26:21.767Z,12.40
2023-01-07T11:27:21.662Z,12.30
2023-01-07T11:28:21.563Z,11.50
2023-01-07T11:29:21.473Z,12.10
2023-01-07T11:31:57.343Z,12.70
2023-01-07T11:32:57.237Z,12.90
2023-01-07T11:34:01.903Z,12.40
2023-01-07T11:34:58.228Z,12.40
2023-01-07T11:35:57.175Z,11.90
2023-01-07T11:36:57.154Z,11.80
2023-01-07T11:37:57.125Z,12.00
2023-01-07T11:38:57.098Z,11.70
2023-01-07T11:39:57.070Z,12.50
2023-01-07T11:40:57.868Z,12.20
2023-01-07T11:41:57.037Z,11.70
2023-01-07T11:42:56.991Z,11.70
2023-01-07T11:43:56.958Z,12.20
2023-01-07T11:44:56.943Z,13.50
2023-01-07T11:46:20.224Z,12.40
2023-01-07T11:46:57.941Z,12.40
2023-01-07T11:47:56.869Z,12.10
2023-01-07T11:48:56.850Z,11.50
2023-01-07T11:49:56.834Z,12.00
2023-01-07T11:50:56.802Z,11.80
2023-01-07T11:51:56.776Z,11.70
2023-01-07T11:52:56.759Z,12.60
2023-01-07T11:53:56.757Z,11.30
2023-01-07T11:54:56.719Z,11.70
2023-01-07T11:55:56.700Z,12.20
2023-01-07T11:56:56.672Z,12.10
2023-01-07T11:58:13.009Z,12.10
2023-01-07T11:58:57.631Z,11.30
2023-01-07T11:59:56.611Z,12.30
2023-01-07T12:00:56.635Z,11.80
2023-01-07T12:01:56.650Z,12.20
2023-01-07T12:02:56.575Z,12.10
2023-01-07T12:03:56.544Z,12.00
2023-01-07T12:04:56.521Z,12.80
2023-01-07T12:05:56.524Z,11.30
2023-01-07T12:06:56.502Z,12.50
2023-01-07T12:07:56.464Z,11.50
2023-01-07T12:08:56.453Z,11.70
2023-01-07T12:09:56.424Z,12.40
2023-01-07T12:10:56.453Z,11.10
2023-01-07T12:11:56.385Z,11.50
2023-01-07T12:12:56.367Z,10.80
2023-01-07T12:13:56.341Z,11.20
2023-01-07T12:14:56.324Z,11.30
2023-01-07T12:15:56.314Z,11.40
2023-01-07T12:16:56.426Z,11.00
2023-01-07T12:17:56.244Z,11.10
2023-01-07T12:18:56.218Z,10.70
2023-01-07T12:19:56.205Z,11.30
2023-01-07T12:20:56.201Z,11.00
2023-01-07T12:21:56.147Z,11.10
2023-01-07T12:22:58.446Z,10.40
2023-01-07T12:23:56.118Z,10.80
2023-01-07T12:24:56.105Z,10.90
2023-01-07T12:25:56.116Z,10.10
2023-01-07T12:26:56.057Z,10.60
2023-01-07T12:27:56.043Z,10.30
2023-01-07T12:28:56.016Z,10.40
2023-01-07T12:29:55.984Z,11.30
2023-01-07T12:30:56.057Z,10.40
2023-01-07T12:31:55.948Z,10.40
2023-01-07T12:32:55.921Z,10.60
2023-01-07T12:33:55.919Z,10.40
2023-01-07T12:34:55.879Z,10.50
2023-01-07T12:35:55.857Z,10.50
2023-01-07T12:36:55.868Z,10.40
2023-01-07T12:37:55.913Z,10.30
2023-01-07T12:38:55.850Z,10.50
2023-01-07T12:39:56.890Z,11.00
2023-01-07T12:40:55.801Z,10.60
2023-01-07T12:41:55.773Z,10.50
2023-01-07T12:42:55.800Z,10.20
2023-01-07T12:43:57.713Z,9.70
2023-01-07T12:44:55.740Z,10.20
2023-01-07T12:45:55.714Z,10.00
2023-01-07T12:46:55.695Z,11.00
2023-01-07T12:47:56.689Z,9.90
2023-01-07T12:48:55.654Z,10.00
2023-01-07T12:49:55.624Z,10.10
2023-01-07T12:50:55.654Z,10.60
2023-01-07T12:51:55.598Z,10.40
2023-01-07T12:52:55.612Z,10.40
2023-01-07T12:53:55.556Z,9.80
2023-01-07T12:54:55.546Z,9.80
2023-01-07T12:55:55.522Z,9.50
2023-01-07T12:56:55.530Z,9.90
2023-01-07T12:57:55.494Z,10.20
2023-01-07T12:58:55.474Z,9.60
2023-01-07T12:59:55.455Z,9.50
2023-01-07T13:00:55.578Z,9.90
2023-01-07T13:01:55.601Z,9.70
2023-01-07T13:02:55.399Z,9.10
2023-01-07T13:03:55.388Z,8.80
2023-01-07T13:04:55.391Z,8.80
2023-01-07T13:05:55.387Z,8.90
2023-01-07T13:06:55.336Z,8.90
2023-01-07T13:07:55.328Z,9.30
2023-01-07T13:08:55.345Z,9.50
2023-01-07T13:09:55.292Z,8.60
2023-01-07T13:10:55.284Z,8.00
2023-01-07T13:11:55.309Z,8.50
2023-01-07T13:12:55.272Z,8.10
2023-01-07T13:13:55.258Z,8.50
2023-01-07T13:14:55.230Z,8.20
2023-01-07T13:15:55.288Z,8.60
2023-01-07T13:16:55.193Z,8.00
2023-01-07T13:17:55.174Z,8.20
2023-01-07T13:18:55.159Z,7.70
2023-01-07T13:19:55.282Z,7.80
2023-01-07T13:20:55.145Z,8.30
2023-01-07T13:21:55.122Z,7.40
2023-01-07T13:22:55.128Z,8.80
2023-01-07T13:23:55.092Z,7.10
2023-01-07T13:24:56.922Z,7.20
2023-01-07T13:25:55.058Z,7.70
2023-01-07T13:26:55.047Z,6.90
2023-01-07T13:27:55.032Z,7.30
2023-01-07T13:28:55.015Z,6.70
2023-01-07T13:29:55.046Z,7.10
2023-01-07T13:30:55.071Z,6.30
2023-01-07T13:31:54.987Z,6.50
2023-01-07T13:32:54.984Z,6.50
2023-01-07T13:33:54.966Z,6.10
2023-01-07T13:34:54.958Z,5.80
2023-01-07T13:35:54.946Z,6.10
2023-01-07T13:36:54.931Z,5.80
2023-01-07T13:37:54.900Z,6.40
2023-01-07T13:38:54.904Z,6.40
2023-01-07T13:39:54.873Z,6.40
2023-01-07T13:40:54.880Z,6.00
2023-01-07T13:41:54.871Z,6.70
2023-01-07T13:42:54.868Z,6.40
2023-01-07T13:43:54.831Z,6.60
2023-01-07T13:44:54.818Z,6.60
2023-01-07T13:45:54.861Z,6.90
2023-01-07T13:46:54.819Z,7.10
2023-01-07T13:47:54.772Z,6.80
2023-01-07T13:48:54.760Z,7.20
2023-01-07T13:49:56.761Z,6.60
2023-01-07T13:50:54.760Z,6.80
2023-01-07T13:51:54.804Z,7.00
2023-01-07T13:52:54.723Z,7.20
2023-01-07T13:53:54.682Z,7.00
2023-01-07T13:54:54.674Z,7.60
2023-01-07T13:55:54.720Z,7.10
2023-01-07T13:56:54.643Z,7.20
2023-01-07T13:57:54.637Z,8.20
2023-01-07T13:58:54.622Z,7.20
2023-01-07T13:59:54.590Z,7.20
2023-01-07T14:00:54.635Z,7.20
2023-01-07T14:01:54.717Z,7.20
2023-01-07T14:02:54.622Z,7.00
2023-01-07T14:03:54.540Z,6.50
2023-01-07T14:04:54.524Z,7.40
2023-01-07T14:05:55.927Z,7.30
2023-01-07T14:06:54.504Z,7.10
2023-01-07T14:07:54.509Z,7.30
2023-01-07T14:08:54.520Z,7.40
2023-01-07T14:09:54.474Z,7.70
2023-01-07T14:10:54.496Z,7.60
2023-01-07T14:11:54.484Z,7.40
2023-01-07T14:12:54.446Z,7.40
2023-01-07T14:13:54.442Z,7.40
2023-01-07T14:14:54.427Z,7.70
2023-01-07T14:15:54.535Z,7.90
2023-01-07T14:16:54.452Z,8.20
2023-01-07T14:17:54.391Z,8.30
2023-01-07T14:18:54.378Z,8.40
2023-01-07T14:19:54.385Z,8.00
2023-01-07T14:20:54.360Z,7.90
2023-01-07T14:21:54.387Z,7.70
2023-01-07T14:22:54.338Z,7.80
2023-01-07T14:23:54.324Z,7.70
2023-01-07T14:24:54.301Z,7.30
2023-01-07T14:25:54.350Z,8.00
2023-01-07T14:26:54.291Z,8.00
2023-01-07T14:27:54.271Z,8.00
2023-01-07T14:28:54.245Z,8.10
2023-01-07T14:29:59.247Z,7.70
2023-01-07T14:30:55.254Z,9.00
2023-01-07T14:31:54.191Z,7.80
2023-01-07T14:32:54.211Z,8.00
2023-01-07T14:33:54.153Z,8.70
2023-01-07T14:34:54.152Z,8.10
2023-01-07T14:35:54.166Z,7.70
2023-01-07T14:36:54.132Z,8.60
2023-01-07T14:37:54.083Z,8.30
2023-01-07T14:38:54.075Z,7.80
2023-01-07T14:39:54.044Z,7.70
2023-01-07T14:40:54.024Z,8.00
2023-01-07T14:41:54.014Z,7.20
2023-01-07T14:42:54.148Z,7.60
2023-01-07T14:43:54.019Z,7.20
2023-01-07T14:44:54.011Z,7.60
2023-01-07T14:45:53.968Z,7.00
